createdAt,value
2022-12-29T00:00:26.111Z,2.78
2022-12-29T00:02:55.316Z,2.01
2022-12-29T00:05:23.009Z,2.97
2022-12-29T00:07:50.670Z,2.47
2022-12-29T00:10:18.559Z,2.95
2022-12-29T00:13:04.230Z,2.64
2022-12-29T00:15:41.017Z,2.86
2022-12-29T00:18:10.343Z,2.85
2022-12-29T00:20:56.615Z,2.81
2022-12-29T00:23:43.831Z,2.88
2022-12-29T00:26:33.228Z,2.93
2022-12-29T00:29:19.076Z,2.90
2022-12-29T00:32:04.411Z,2.44
2022-12-29T00:34:51.121Z,2.98
2022-12-29T00:37:39.404Z,3.17
2022-12-29T00:40:25.334Z,3.13
2022-12-29T00:43:10.834Z,2.91
2022-12-29T00:45:38.505Z,3.15
2022-12-29T00:48:06.330Z,3.21
2022-12-29T00:50:35.346Z,3.21
2022-12-29T00:53:02.977Z,2.55
2022-12-29T00:55:30.609Z,3.22
2022-12-29T00:57:59.252Z,3.04
2022-12-29T01:00:26.946Z,3.17
2022-12-29T01:02:54.657Z,3.15
2022-12-29T01:05:22.351Z,3.29
2022-12-29T01:07:51.311Z,3.28
2022-12-29T01:10:18.103Z,3.26
2022-12-29T01:12:46.264Z,3.26
2022-12-29T01:15:16.475Z,2.87
2022-12-29T01:17:44.287Z,3.16
2022-12-29T01:20:12.853Z,3.15
2022-12-29T01:22:43.321Z,2.94
2022-12-29T01:25:12.336Z,3.44
2022-12-29T01:27:39.991Z,3.32
2022-12-29T01:30:08.784Z,2.36
2022-12-29T01:32:36.459Z,3.27
2022-12-29T01:35:04.345Z,3.19
2022-12-29T01:37:31.964Z,3.15
2022-12-29T01:39:59.629Z,3.07
2022-12-29T01:42:28.676Z,2.86
2022-12-29T01:44:57.618Z,2.79
2022-12-29T01:47:34.799Z,2.87
2022-12-29T01:50:07.887Z,2.85
2022-12-29T01:52:39.208Z,2.76
2022-12-29T01:55:08.334Z,2.03
2022-12-29T01:57:41.904Z,2.69
2022-12-29T02:00:11.839Z,2.80
2022-12-29T02:02:45.983Z,2.76
2022-12-29T02:05:19.451Z,2.77
2022-12-29T02:07:48.687Z,2.85
2022-12-29T02:10:17.149Z,2.90
2022-12-29T02:12:47.373Z,2.89
2022-12-29T02:15:16.928Z,2.92
2022-12-29T02:18:03.455Z,3.01
2022-12-29T02:21:07.275Z,2.96
2022-12-29T02:23:55.919Z,3.13
2022-12-29T02:26:48.401Z,3.01
2022-12-29T02:32:17.760Z,3.14
2022-12-29T02:34:55.992Z,3.14
2022-12-29T02:37:28.490Z,3.16
2022-12-29T02:40:03.370Z,2.57
2022-12-29T02:42:38.343Z,3.27
2022-12-29T02:45:12.978Z,3.42
2022-12-29T02:47:50.202Z,3.46
2022-12-29T02:50:23.287Z,2.90
2022-12-29T02:52:56.522Z,3.18
2022-12-29T02:55:23.245Z,3.57
2022-12-29T02:58:06.452Z,3.57
2022-12-29T03:00:39.540Z,3.63
2022-12-29T03:03:23.915Z,3.53
2022-12-29T03:06:19.633Z,3.63
2022-12-29T03:08:56.436Z,3.64
2022-12-29T03:11:50.210Z,3.78
2022-12-29T03:14:46.945Z,3.85
2022-12-29T03:17:23.240Z,3.89
2022-12-29T03:19:57.485Z,4.15
2022-12-29T03:22:29.091Z,4.17
2022-12-29T03:25:16.266Z,4.25
2022-12-29T03:27:47.089Z,4.19
2022-12-29T03:30:15.844Z,4.26
2022-12-29T03:32:48.684Z,4.41
2022-12-29T03:35:21.790Z,4.24
2022-12-29T03:37:54.909Z,3.59
2022-12-29T03:40:25.600Z,4.34
2022-12-29T03:42:55.280Z,3.69
2022-12-29T03:45:23.306Z,4.19
2022-12-29T03:47:51.297Z,4.40
2022-12-29T03:50:21.161Z,4.47
2022-12-29T03:52:48.899Z,4.35
2022-12-29T03:55:16.557Z,4.36
2022-12-29T03:57:46.391Z,4.40
2022-12-29T04:00:19.322Z,4.62
2022-12-29T04:02:50.631Z,4.56
2022-12-29T04:05:23.898Z,4.55
2022-12-29T04:07:55.167Z,4.50
2022-12-29T04:10:22.880Z,3.81
2022-12-29T04:12:54.251Z,3.52
2022-12-29T04:15:22.079Z,4.47
2022-12-29T04:17:50.149Z,4.70
2022-12-29T04:20:35.735Z,3.83
2022-12-29T04:23:08.729Z,4.65
2022-12-29T04:25:37.508Z,4.28
2022-12-29T04:28:05.400Z,4.70
2022-12-29T04:30:44.044Z,4.71
2022-12-29T04:33:19.676Z,4.70
2022-12-29T04:35:47.666Z,4.75
2022-12-29T04:38:17.956Z,4.27
2022-12-29T04:40:46.826Z,4.60
2022-12-29T04:43:15.214Z,4.81
2022-12-29T04:46:00.348Z,3.66
2022-12-29T04:48:38.042Z,4.55
2022-12-29T04:51:32.002Z,4.94
2022-12-29T04:54:01.182Z,4.48
2022-12-29T04:56:29.933Z,4.38
2022-12-29T04:58:59.017Z,4.41
2022-12-29T05:01:26.790Z,4.22
2022-12-29T05:03:54.865Z,4.95
2022-12-29T05:06:22.647Z,4.97
2022-12-29T05:08:51.224Z,4.97
2022-12-29T05:11:20.295Z,4.21
2022-12-29T05:13:50.337Z,4.22
2022-12-29T05:16:19.091Z,4.97
2022-12-29T05:18:46.959Z,5.16
2022-12-29T05:21:15.571Z,4.44
2022-12-29T05:23:44.783Z,5.11
2022-12-29T05:26:12.607Z,5.13
2022-12-29T05:28:58.634Z,5.03
2022-12-29T05:31:26.384Z,4.94
2022-12-29T05:33:54.355Z,4.98
2022-12-29T05:36:22.426Z,5.07
2022-12-29T05:38:54.506Z,4.98
2022-12-29T05:41:22.419Z,4.71
2022-12-29T05:44:20.756Z,4.76
2022-12-29T05:47:08.544Z,5.10
2022-12-29T05:49:45.392Z,4.81
2022-12-29T05:52:42.423Z,5.22
2022-12-29T05:55:10.595Z,5.19
2022-12-29T05:57:40.035Z,5.09
2022-12-29T06:00:20.152Z,5.16
2022-12-29T06:02:48.592Z,5.11
2022-12-29T06:05:18.437Z,5.10
2022-12-29T06:07:46.670Z,5.04
2022-12-29T06:10:17.499Z,5.31
2022-12-29T06:12:56.354Z,5.28
2022-12-29T06:15:25.685Z,5.32
2022-12-29T06:17:55.536Z,5.25
2022-12-29T06:20:24.515Z,5.24
2022-12-29T06:22:52.175Z,4.88
2022-12-29T06:25:20.162Z,4.76
2022-12-29T06:27:48.140Z,5.45
2022-12-29T06:30:15.937Z,5.39
2022-12-29T06:32:46.693Z,5.31
2022-12-29T06:35:14.688Z,5.30
2022-12-29T06:37:55.009Z,4.25
2022-12-29T06:40:24.024Z,5.48
2022-12-29T06:43:11.934Z,5.50
2022-12-29T06:46:06.285Z,5.07
2022-12-29T06:48:35.426Z,5.32
2022-12-29T06:51:03.168Z,5.28
2022-12-29T06:53:30.817Z,5.31
2022-12-29T06:55:58.556Z,5.25
2022-12-29T06:58:26.274Z,5.43
2022-12-29T07:00:53.976Z,5.47
2022-12-29T07:03:21.707Z,5.33
2022-12-29T07:05:53.199Z,5.27
2022-12-29T07:08:20.854Z,5.16
2022-12-29T07:10:48.766Z,4.65
2022-12-29T07:13:16.436Z,5.36
2022-12-29T07:15:44.080Z,5.15
2022-12-29T07:18:11.694Z,5.16
2022-12-29T07:20:39.307Z,5.28
2022-12-29T07:23:08.327Z,5.06
2022-12-29T07:25:36.934Z,5.24
2022-12-29T07:28:04.829Z,5.23
2022-12-29T07:30:32.508Z,5.43
2022-12-29T07:33:00.402Z,5.27
2022-12-29T07:35:28.075Z,5.19
2022-12-29T07:37:55.683Z,5.20
2022-12-29T07:40:24.792Z,5.30
2022-12-29T07:42:52.413Z,4.92
2022-12-29T07:45:28.258Z,5.31
2022-12-29T07:48:06.849Z,5.32
2022-12-29T07:50:34.636Z,5.45
2022-12-29T07:53:02.316Z,5.40
2022-12-29T07:55:31.554Z,5.52
2022-12-29T07:57:59.195Z,5.54
2022-12-29T08:00:27.086Z,5.51
2022-12-29T08:02:54.684Z,5.44
2022-12-29T08:05:22.572Z,5.65
2022-12-29T08:07:50.464Z,5.61
2022-12-29T08:10:18.698Z,5.59
2022-12-29T08:12:47.740Z,5.58
2022-12-29T08:15:15.654Z,5.04
2022-12-29T08:17:43.469Z,5.25
2022-12-29T08:20:11.674Z,5.74
2022-12-29T08:22:39.411Z,6.11
2022-12-29T08:25:07.547Z,6.23
2022-12-29T08:27:35.147Z,6.21
2022-12-29T08:30:04.769Z,6.18
2022-12-29T08:32:32.619Z,6.22
2022-12-29T08:35:00.250Z,6.35
2022-12-29T08:37:31.249Z,5.97
2022-12-29T08:39:59.759Z,6.65
2022-12-29T08:42:31.781Z,6.65
2022-12-29T08:44:59.948Z,6.63
2022-12-29T08:47:29.061Z,6.89
2022-12-29T08:49:57.691Z,6.93
2022-12-29T08:52:25.357Z,6.95
2022-12-29T08:54:53.053Z,6.68
2022-12-29T08:57:21.765Z,6.34
2022-12-29T09:00:06.560Z,6.80
2022-12-29T09:02:35.869Z,6.87
2022-12-29T09:05:03.658Z,6.87
2022-12-29T09:07:31.299Z,6.91
2022-12-29T09:09:58.927Z,6.20
2022-12-29T09:12:30.175Z,7.47
2022-12-29T09:15:00.910Z,7.13
2022-12-29T09:17:44.329Z,7.38
2022-12-29T09:20:14.593Z,7.36
2022-12-29T09:22:42.612Z,7.38
2022-12-29T09:25:11.671Z,7.37
2022-12-29T09:27:39.420Z,7.48
2022-12-29T09:30:10.265Z,7.39
2022-12-29T09:32:44.551Z,7.64
2022-12-29T09:35:14.311Z,7.74
2022-12-29T09:37:43.506Z,7.79
2022-12-29T09:40:27.913Z,7.96
2022-12-29T09:43:07.177Z,8.36
2022-12-29T09:45:42.406Z,8.29
2022-12-29T09:48:19.775Z,8.24
2022-12-29T09:50:54.859Z,8.18
2022-12-29T09:53:27.505Z,8.24
2022-12-29T09:55:59.400Z,8.26
2022-12-29T09:58:32.428Z,8.24
2022-12-29T10:01:05.658Z,8.23
2022-12-29T10:03:46.021Z,8.31
2022-12-29T10:06:20.591Z,8.27
2022-12-29T10:08:59.437Z,8.31
2022-12-29T10:11:40.742Z,8.36
2022-12-29T10:14:23.429Z,8.22
2022-12-29T10:16:56.606Z,7.70
2022-12-29T10:19:45.357Z,8.07
2022-12-29T10:22:30.853Z,8.00
2022-12-29T10:24:58.711Z,8.55
2022-12-29T10:27:26.518Z,8.41
2022-12-29T10:29:57.782Z,8.25
2022-12-29T10:32:36.667Z,8.14
2022-12-29T10:35:11.753Z,8.21
2022-12-29T10:37:45.106Z,8.09
2022-12-29T10:40:21.046Z,8.31
2022-12-29T10:42:54.124Z,8.21
2022-12-29T10:45:25.019Z,8.36
2022-12-29T10:47:59.512Z,8.43
2022-12-29T10:50:30.386Z,8.39
2022-12-29T10:53:02.834Z,8.45
2022-12-29T10:55:34.843Z,8.54
2022-12-29T10:58:27.740Z,8.63
2022-12-29T11:00:56.676Z,8.56
2022-12-29T11:03:48.202Z,8.69
2022-12-29T11:06:24.113Z,8.79
2022-12-29T11:08:57.625Z,8.72
2022-12-29T11:11:28.062Z,8.83
2022-12-29T11:14:00.416Z,9.13
2022-12-29T11:16:32.898Z,9.15
2022-12-29T11:19:01.088Z,8.88
2022-12-29T11:21:34.745Z,9.55
2022-12-29T11:24:21.620Z,9.59
2022-12-29T11:26:51.673Z,9.75
2022-12-29T11:29:23.868Z,10.27
2022-12-29T11:31:53.495Z,10.31
2022-12-29T11:34:24.489Z,10.10
2022-12-29T11:36:54.126Z,10.48
2022-12-29T11:39:36.328Z,10.32
2022-12-29T11:42:05.163Z,10.46
2022-12-29T11:44:39.309Z,10.53
2022-12-29T11:47:10.819Z,10.14
2022-12-29T11:49:38.515Z,10.28
2022-12-29T11:52:06.631Z,10.48
2022-12-29T11:54:38.915Z,10.52
2022-12-29T11:57:14.750Z,10.76
2022-12-29T11:59:50.227Z,10.77
2022-12-29T12:02:42.133Z,10.77
2022-12-29T12:05:24.064Z,10.74
2022-12-29T12:07:57.497Z,10.67
2022-12-29T12:10:31.923Z,10.53
2022-12-29T12:13:08.000Z,10.53
2022-12-29T12:15:45.976Z,10.43
2022-12-29T12:18:20.880Z,10.57
2022-12-29T12:20:52.628Z,10.49
2022-12-29T12:23:38.379Z,10.33
2022-12-29T12:26:14.230Z,10.42
2022-12-29T12:28:50.397Z,10.60
2022-12-29T12:31:27.365Z,10.61
2022-12-29T12:34:02.018Z,10.84
2022-12-29T12:36:53.484Z,10.96
2022-12-29T12:39:28.832Z,10.95
2022-12-29T12:42:13.336Z,10.97
2022-12-29T12:44:55.233Z,10.97
2022-12-29T12:47:52.941Z,10.85
2022-12-29T12:50:34.004Z,10.81
2022-12-29T12:53:26.111Z,10.85
2022-12-29T12:56:05.678Z,10.63
2022-12-29T12:58:43.556Z,10.64
2022-12-29T13:01:25.036Z,10.45
2022-12-29T13:04:09.308Z,10.60
2022-12-29T13:06:50.277Z,10.49
2022-12-29T13:09:34.420Z,10.40
2022-12-29T13:12:18.236Z,10.35
2022-12-29T13:15:05.464Z,10.42
2022-12-29T13:17:42.168Z,10.44
2022-12-29T13:20:21.694Z,10.35
2022-12-29T13:22:56.875Z,10.33
2022-12-29T13:25:32.875Z,10.23
2022-12-29T13:28:10.070Z,10.14
2022-12-29T13:30:46.406Z,9.96
2022-12-29T13:33:23.866Z,9.82
2022-12-29T13:35:58.694Z,9.79
2022-12-29T13:38:31.735Z,9.80
2022-12-29T13:41:06.233Z,9.86
2022-12-29T13:43:37.721Z,10.01
2022-12-29T13:46:11.103Z,9.94
2022-12-29T13:48:44.465Z,9.95
2022-12-29T13:51:13.951Z,10.39
2022-12-29T13:53:59.137Z,10.23
2022-12-29T13:56:33.481Z,10.12
2022-12-29T13:59:08.953Z,10.00
2022-12-29T14:01:42.575Z,9.89
2022-12-29T14:04:15.894Z,10.14
2022-12-29T14:06:43.689Z,9.97
2022-12-29T14:09:40.142Z,9.88
2022-12-29T14:12:22.529Z,9.84
2022-12-29T14:14:50.575Z,9.89
2022-12-29T14:17:22.619Z,9.88
2022-12-29T14:19:55.318Z,9.86
2022-12-29T14:22:32.622Z,9.76
2022-12-29T14:25:01.698Z,9.82
2022-12-29T14:27:55.530Z,9.76
2022-12-29T14:30:59.989Z,9.75
2022-12-29T14:33:31.657Z,9.97
2022-12-29T14:36:23.543Z,9.96
2022-12-29T14:38:51.266Z,9.80
2022-12-29T14:41:33.924Z,9.62
2022-12-29T14:44:20.364Z,9.53
2022-12-29T14:46:57.308Z,9.45
2022-12-29T14:49:29.377Z,9.33
2022-12-29T14:52:07.205Z,9.37
2022-12-29T14:54:50.250Z,9.29
2022-12-29T14:57:26.686Z,9.22
2022-12-29T14:59:56.883Z,9.13
2022-12-29T15:02:28.080Z,9.02
2022-12-29T15:05:02.887Z,8.88
2022-12-29T15:07:31.985Z,8.93
2022-12-29T15:10:07.228Z,8.90
2022-12-29T15:12:40.360Z,8.81
2022-12-29T15:15:24.104Z,8.94
2022-12-29T15:17:51.775Z,8.92
2022-12-29T15:20:27.075Z,8.82
2022-12-29T15:22:58.047Z,8.78
2022-12-29T15:25:28.932Z,8.75
2022-12-29T15:28:03.349Z,8.69
2022-12-29T15:30:30.991Z,8.61
2022-12-29T15:32:58.930Z,8.56
2022-12-29T15:35:32.743Z,8.51
2022-12-29T15:38:02.010Z,8.42
2022-12-29T15:40:31.711Z,8.46
2022-12-29T15:43:29.445Z,8.39
2022-12-29T15:45:57.457Z,8.43
2022-12-29T15:48:26.408Z,8.37
2022-12-29T15:50:55.876Z,8.35
2022-12-29T15:53:29.155Z,8.32
2022-12-29T15:56:03.204Z,8.24
2022-12-29T15:58:40.802Z,8.33
2022-12-29T16:01:19.701Z,8.28
2022-12-29T16:03:48.204Z,8.22
2022-12-29T16:06:33.309Z,8.23
2022-12-29T16:09:03.466Z,8.18
2022-12-29T16:11:36.834Z,8.07
2022-12-29T16:14:09.937Z,8.11
2022-12-29T16:16:40.492Z,8.08
2022-12-29T16:19:15.142Z,8.08
2022-12-29T16:21:44.953Z,8.17
2022-12-29T16:24:16.880Z,8.24
2022-12-29T16:26:50.251Z,8.22
2022-12-29T16:29:18.710Z,7.91
2022-12-29T16:32:01.501Z,8.12
2022-12-29T16:34:32.094Z,8.09
2022-12-29T16:37:02.635Z,8.02
2022-12-29T16:39:36.644Z,7.82
2022-12-29T16:42:38.655Z,8.17
2022-12-29T16:45:51.265Z,8.10
2022-12-29T16:48:21.860Z,8.52
2022-12-29T16:50:50.847Z,8.56
2022-12-29T16:53:23.793Z,8.35
2022-12-29T16:55:52.543Z,8.30
2022-12-29T16:58:23.558Z,8.19
2022-12-29T17:00:51.597Z,8.09
2022-12-29T17:03:19.440Z,7.59
2022-12-29T17:05:49.308Z,7.92
2022-12-29T17:08:23.877Z,7.85
2022-12-29T17:11:11.734Z,7.95
2022-12-29T17:13:40.047Z,7.96
2022-12-29T17:16:10.002Z,7.92
2022-12-29T17:18:38.185Z,7.86
2022-12-29T17:21:05.954Z,7.92
2022-12-29T17:23:35.119Z,7.87
2022-12-29T17:26:03.679Z,7.78
2022-12-29T17:28:33.235Z,7.77
2022-12-29T17:31:04.524Z,7.43
2022-12-29T17:33:36.641Z,7.71
2022-12-29T17:36:04.359Z,7.73
2022-12-29T17:38:35.770Z,7.68
2022-12-29T17:41:04.899Z,7.65
2022-12-29T17:43:36.677Z,7.53
2022-12-29T17:46:07.382Z,7.56
2022-12-29T17:48:35.293Z,7.64
2022-12-29T17:51:03.074Z,7.58
2022-12-29T17:53:31.797Z,7.47
2022-12-29T17:55:59.509Z,7.46
2022-12-29T17:58:31.482Z,7.48
2022-12-29T18:01:01.311Z,7.45
2022-12-29T18:03:31.596Z,7.52
2022-12-29T18:05:59.541Z,7.64
2022-12-29T18:08:28.545Z,7.58
2022-12-29T18:10:56.516Z,7.66
2022-12-29T18:13:30.714Z,7.57
2022-12-29T18:16:05.571Z,7.39
2022-12-29T18:18:33.236Z,7.48
2022-12-29T18:21:01.516Z,7.39
2022-12-29T18:23:32.161Z,7.40
2022-12-29T18:26:02.188Z,7.44
2022-12-29T18:28:30.152Z,7.44
2022-12-29T18:31:00.257Z,7.47
2022-12-29T18:33:30.353Z,7.34
2022-12-29T18:35:59.960Z,7.60
2022-12-29T18:38:28.410Z,7.50
2022-12-29T18:40:56.906Z,7.15
2022-12-29T18:43:24.874Z,7.56
2022-12-29T18:45:52.588Z,7.74
2022-12-29T18:48:21.650Z,7.71
2022-12-29T18:50:51.748Z,7.86
2022-12-29T18:53:21.501Z,7.62
2022-12-29T18:55:49.201Z,7.79
2022-12-29T18:58:16.878Z,7.70
2022-12-29T19:00:45.297Z,7.67
2022-12-29T19:03:14.579Z,7.67
2022-12-29T19:05:44.093Z,7.43
2022-12-29T19:08:13.407Z,7.58
2022-12-29T19:10:42.303Z,7.47
2022-12-29T19:13:17.247Z,7.37
2022-12-29T19:15:46.411Z,7.55
2022-12-29T19:21:07.126Z,7.54
2022-12-29T19:23:36.120Z,7.47
2022-12-29T19:26:03.758Z,7.49
2022-12-29T19:28:31.346Z,7.56
2022-12-29T19:31:00.858Z,7.57
2022-12-29T19:33:29.341Z,7.57
2022-12-29T19:36:00.985Z,7.37
2022-12-29T19:38:28.783Z,7.64
2022-12-29T19:40:58.107Z,7.56
2022-12-29T19:43:25.977Z,7.54
2022-12-29T19:45:53.842Z,7.57
2022-12-29T19:48:21.818Z,7.56
2022-12-29T19:50:49.446Z,7.58
2022-12-29T19:53:17.107Z,7.51
2022-12-29T19:55:44.741Z,7.56
2022-12-29T19:58:14.467Z,7.52
2022-12-29T20:00:43.140Z,7.57
2022-12-29T20:03:11.207Z,7.56
2022-12-29T20:05:40.087Z,7.69
2022-12-29T20:08:07.878Z,7.96
2022-12-29T20:10:35.523Z,7.95
2022-12-29T20:13:04.406Z,7.87
2022-12-29T20:15:33.446Z,7.62
2022-12-29T20:18:16.501Z,7.70
2022-12-29T20:20:44.183Z,7.86
2022-12-29T20:23:11.809Z,7.84
2022-12-29T20:25:47.660Z,7.73
2022-12-29T20:28:16.659Z,7.66
2022-12-29T20:30:45.654Z,7.60
2022-12-29T20:33:13.272Z,7.62
2022-12-29T20:35:40.887Z,7.60
2022-12-29T20:38:08.545Z,7.62
2022-12-29T20:40:42.308Z,7.65
2022-12-29T20:43:11.958Z,7.57
2022-12-29T20:45:40.131Z,7.57
2022-12-29T20:48:09.116Z,7.55
2022-12-29T20:50:36.747Z,7.57
2022-12-29T20:53:04.521Z,7.59
2022-12-29T20:55:32.468Z,7.49
2022-12-29T21:00:48.168Z,7.16
2022-12-29T21:03:17.221Z,7.16
2022-12-29T21:05:44.918Z,7.22
2022-12-29T21:08:12.605Z,7.14
2022-12-29T21:10:40.377Z,7.11
2022-12-29T21:13:08.008Z,7.07
2022-12-29T21:15:35.626Z,7.15
2022-12-29T21:18:03.185Z,7.09
2022-12-29T21:20:32.502Z,7.07
2022-12-29T21:23:01.041Z,7.04
2022-12-29T21:25:36.969Z,6.97
2022-12-29T21:28:05.279Z,7.02
2022-12-29T21:30:33.116Z,6.96
2022-12-29T21:33:01.478Z,6.96
2022-12-29T21:35:29.298Z,6.95
2022-12-29T21:37:58.276Z,7.01
2022-12-29T21:40:25.896Z,7.17
2022-12-29T21:42:53.681Z,7.21
2022-12-29T21:45:26.316Z,7.17
2022-12-29T21:48:11.456Z,7.30
2022-12-29T21:51:01.130Z,7.16
2022-12-29T21:53:43.802Z,7.12
2022-12-29T21:56:14.194Z,7.05
2022-12-29T21:59:01.849Z,7.04
2022-12-29T22:01:49.639Z,7.12
2022-12-29T22:04:37.561Z,6.95
2022-12-29T22:07:24.816Z,7.12
2022-12-29T22:10:11.615Z,7.10
2022-12-29T22:12:57.488Z,6.99
2022-12-29T22:15:25.911Z,6.85
2022-12-29T22:17:55.324Z,6.91
2022-12-29T22:20:25.289Z,6.87
2022-12-29T22:22:52.993Z,6.87
2022-12-29T22:25:22.173Z,6.86
2022-12-29T22:27:54.265Z,6.81
2022-12-29T22:30:26.690Z,6.75
2022-12-29T22:32:54.379Z,6.70
2022-12-29T22:35:22.072Z,6.75
2022-12-29T22:37:49.809Z,6.13
2022-12-29T22:40:17.549Z,6.53
2022-12-29T22:42:47.078Z,6.58
2022-12-29T22:45:14.813Z,6.73
2022-12-29T22:47:42.507Z,6.71
2022-12-29T22:50:11.201Z,6.85
2022-12-29T22:52:38.913Z,6.83
2022-12-29T22:55:08.492Z,6.81
2022-12-29T22:57:36.390Z,6.46
2022-12-29T23:00:08.073Z,6.67
2022-12-29T23:02:36.336Z,6.82
2022-12-29T23:05:05.515Z,6.82
2022-12-29T23:07:34.440Z,6.91
2022-12-29T23:10:02.606Z,6.44
2022-12-29T23:12:31.361Z,6.90
2022-12-29T23:14:59.216Z,6.09
2022-12-29T23:17:28.738Z,5.87
2022-12-29T23:19:56.558Z,6.87
2022-12-29T23:22:25.060Z,5.77
2022-12-29T23:24:53.002Z,6.85
2022-12-29T23:27:20.734Z,6.52
2022-12-29T23:29:48.561Z,6.83
2022-12-29T23:32:16.323Z,6.93
2022-12-29T23:34:45.436Z,6.41
2022-12-29T23:37:13.185Z,6.75
2022-12-29T23:39:40.917Z,6.04
2022-12-29T23:42:08.711Z,6.96
2022-12-29T23:44:36.510Z,7.00
2022-12-29T23:47:04.294Z,6.66
2022-12-29T23:49:32.257Z,6.80
2022-12-29T23:52:01.289Z,6.81
2022-12-29T23:54:29.056Z,6.06
2022-12-29T23:56:56.819Z,6.80
2022-12-29T23:59:25.349Z,6.94
